sensor_id;sensor_type;location;lat;lon;timestamp;P1;durP1;ratioP1;P2;durP2;ratioP2
1993;SDS011;998;49.906;10.908;2023-05-14T00:00:31;7.27;;;4.53;;
1993;SDS011;998;49.906;10.908;2023-05-14T00:02:58;5.57;;;4.13;;
1993;SDS011;998;49.906;10.908;2023-05-14T00:05:27;6.03;;;4.10;;
1993;SDS011;998;49.906;10.908;2023-05-14T00:07:54;5.97;;;4.83;;
1993;SDS011;998;49.906;10.908;2023-05-14T00:10:22;7.13;;;5.23;;
1993;SDS011;998;49.906;10.908;2023-05-14T00:12:49;6.00;;;4.37;;
1993;SDS011;998;49.906;10.908;2023-05-14T00:15:17;7.40;;;4.70;;
1993;SDS011;998;49.906;10.908;2023-05-14T00:17:44;8.37;;;4.40;;
1993;SDS011;998;49.906;10.908;2023-05-14T00:20:12;5.57;;;4.33;;
1993;SDS011;998;49.906;10.908;2023-05-14T00:22:41;4.90;;;3.80;;
1993;SDS011;998;49.906;10.908;2023-05-14T00:25:08;6.20;;;4.47;;
1993;SDS011;998;49.906;10.908;2023-05-14T00:27:36;6.50;;;4.70;;
1993;SDS011;998;49.906;10.908;2023-05-14T00:30:04;8.50;;;4.50;;
1993;SDS011;998;49.906;10.908;2023-05-14T00:32:32;14.90;;;3.80;;
1993;SDS011;998;49.906;10.908;2023-05-14T00:34:59;7.30;;;4.80;;
1993;SDS011;998;49.906;10.908;2023-05-14T00:37:28;11.10;;;4.37;;
1993;SDS011;998;49.906;10.908;2023-05-14T00:39:57;6.57;;;4.93;;
1993;SDS011;998;49.906;10.908;2023-05-14T00:42:25;5.77;;;4.40;;
1993;SDS011;998;49.906;10.908;2023-05-14T00:44:52;6.03;;;4.53;;
1993;SDS011;998;49.906;10.908;2023-05-14T00:47:19;4.80;;;3.40;;
1993;SDS011;998;49.906;10.908;2023-05-14T00:49:47;6.67;;;5.07;;
1993;SDS011;998;49.906;10.908;2023-05-14T00:52:15;6.20;;;3.90;;
1993;SDS011;998;49.906;10.908;2023-05-14T00:54:43;6.43;;;4.67;;
1993;SDS011;998;49.906;10.908;2023-05-14T00:57:13;7.60;;;4.17;;
1993;SDS011;998;49.906;10.908;2023-05-14T00:59:41;6.33;;;4.43;;
1993;SDS011;998;49.906;10.908;2023-05-14T01:02:08;5.10;;;3.73;;
1993;SDS011;998;49.906;10.908;2023-05-14T01:04:36;5.73;;;3.80;;
1993;SDS011;998;49.906;10.908;2023-05-14T01:07:08;5.87;;;3.80;;
1993;SDS011;998;49.906;10.908;2023-05-14T01:09:44;4.50;;;3.43;;
1993;SDS011;998;49.906;10.908;2023-05-14T01:12:20;6.90;;;4.60;;
1993;SDS011;998;49.906;10.908;2023-05-14T01:14:57;6.53;;;4.40;;
1993;SDS011;998;49.906;10.908;2023-05-14T01:17:32;7.10;;;5.07;;
1993;SDS011;998;49.906;10.908;2023-05-14T01:20:03;5.50;;;3.93;;
1993;SDS011;998;49.906;10.908;2023-05-14T01:22:32;8.13;;;4.60;;
1993;SDS011;998;49.906;10.908;2023-05-14T01:24:59;6.50;;;4.60;;
1993;SDS011;998;49.906;10.908;2023-05-14T01:27:28;8.87;;;5.20;;
1993;SDS011;998;49.906;10.908;2023-05-14T01:30:08;6.60;;;5.30;;
1993;SDS011;998;49.906;10.908;2023-05-14T01:32:40;6.13;;;4.53;;
1993;SDS011;998;49.906;10.908;2023-05-14T01:35:10;7.50;;;4.50;;
1993;SDS011;998;49.906;10.908;2023-05-14T01:37:39;4.73;;;4.00;;
1993;SDS011;998;49.906;10.908;2023-05-14T01:40:08;6.50;;;4.43;;
1993;SDS011;998;49.906;10.908;2023-05-14T01:42:36;8.43;;;4.90;;
1993;SDS011;998;49.906;10.908;2023-05-14T01:45:04;6.20;;;4.30;;
1993;SDS011;998;49.906;10.908;2023-05-14T01:47:33;5.60;;;4.40;;
1993;SDS011;998;49.906;10.908;2023-05-14T01:50:00;6.93;;;4.00;;
1993;SDS011;998;49.906;10.908;2023-05-14T01:52:27;9.93;;;5.00;;
1993;SDS011;998;49.906;10.908;2023-05-14T01:54:56;5.80;;;4.20;;
1993;SDS011;998;49.906;10.908;2023-05-14T01:57:24;5.47;;;4.50;;
1993;SDS011;998;49.906;10.908;2023-05-14T01:59:51;8.50;;;5.17;;
1993;SDS011;998;49.906;10.908;2023-05-14T02:02:19;7.83;;;4.77;;
1993;SDS011;998;49.906;10.908;2023-05-14T02:04:46;5.33;;;4.53;;
1993;SDS011;998;49.906;10.908;2023-05-14T02:07:13;7.47;;;4.80;;
1993;SDS011;998;49.906;10.908;2023-05-14T02:09:41;7.60;;;5.07;;
1993;SDS011;998;49.906;10.908;2023-05-14T02:12:10;5.77;;;4.00;;
1993;SDS011;998;49.906;10.908;2023-05-14T02:14:37;5.17;;;3.60;;
1993;SDS011;998;49.906;10.908;2023-05-14T02:17:04;5.87;;;4.33;;
1993;SDS011;998;49.906;10.908;2023-05-14T02:19:32;4.40;;;3.60;;
1993;SDS011;998;49.906;10.908;2023-05-14T02:21:59;5.80;;;4.27;;
1993;SDS011;998;49.906;10.908;2023-05-14T02:24:27;7.17;;;5.00;;
1993;SDS011;998;49.906;10.908;2023-05-14T02:26:55;5.50;;;4.00;;
1993;SDS011;998;49.906;10.908;2023-05-14T02:29:26;6.97;;;4.27;;
1993;SDS011;998;49.906;10.908;2023-05-14T02:31:54;5.77;;;4.63;;
1993;SDS011;998;49.906;10.908;2023-05-14T02:34:22;7.40;;;5.37;;
1993;SDS011;998;49.906;10.908;2023-05-14T02:36:49;7.93;;;4.70;;
1993;SDS011;998;49.906;10.908;2023-05-14T02:39:17;6.23;;;4.30;;
1993;SDS011;998;49.906;10.908;2023-05-14T02:41:44;5.27;;;3.93;;
1993;SDS011;998;49.906;10.908;2023-05-14T02:44:11;6.70;;;4.80;;
1993;SDS011;998;49.906;10.908;2023-05-14T02:46:40;8.93;;;4.37;;
1993;SDS011;998;49.906;10.908;2023-05-14T02:49:08;6.20;;;4.13;;
1993;SDS011;998;49.906;10.908;2023-05-14T02:51:35;9.17;;;4.77;;
1993;SDS011;998;49.906;10.908;2023-05-14T02:54:03;4.43;;;3.73;;
1993;SDS011;998;49.906;10.908;2023-05-14T02:56:31;7.17;;;4.13;;
1993;SDS011;998;49.906;10.908;2023-05-14T02:58:58;5.47;;;3.87;;
1993;SDS011;998;49.906;10.908;2023-05-14T03:01:26;5.43;;;3.60;;
1993;SDS011;998;49.906;10.908;2023-05-14T03:03:55;7.90;;;3.70;;
1993;SDS011;998;49.906;10.908;2023-05-14T03:06:22;5.20;;;4.30;;
1993;SDS011;998;49.906;10.908;2023-05-14T03:08:50;4.77;;;3.77;;
1993;SDS011;998;49.906;10.908;2023-05-14T03:11:17;7.10;;;4.27;;
1993;SDS011;998;49.906;10.908;2023-05-14T03:13:45;5.43;;;3.73;;
1993;SDS011;998;49.906;10.908;2023-05-14T03:16:12;5.77;;;4.23;;
1993;SDS011;998;49.906;10.908;2023-05-14T03:18:39;6.43;;;4.20;;
1993;SDS011;998;49.906;10.908;2023-05-14T03:21:08;5.00;;;3.80;;
1993;SDS011;998;49.906;10.908;2023-05-14T03:23:36;9.03;;;4.37;;
1993;SDS011;998;49.906;10.908;2023-05-14T03:26:03;6.73;;;3.53;;
1993;SDS011;998;49.906;10.908;2023-05-14T03:28:30;3.97;;;3.10;;
1993;SDS011;998;49.906;10.908;2023-05-14T03:30:58;6.20;;;4.30;;
1993;SDS011;998;49.906;10.908;2023-05-14T03:33:25;6.73;;;4.10;;
1993;SDS011;998;49.906;10.908;2023-05-14T03:35:53;5.10;;;3.87;;
1993;SDS011;998;49.906;10.908;2023-05-14T03:38:22;4.53;;;4.00;;
1993;SDS011;998;49.906;10.908;2023-05-14T03:40:49;6.90;;;3.73;;
1993;SDS011;998;49.906;10.908;2023-05-14T03:43:16;5.27;;;3.70;;
1993;SDS011;998;49.906;10.908;2023-05-14T03:45:44;6.60;;;3.47;;
1993;SDS011;998;49.906;10.908;2023-05-14T03:48:12;8.70;;;4.50;;
1993;SDS011;998;49.906;10.908;2023-05-14T03:50:39;5.90;;;4.60;;
1993;SDS011;998;49.906;10.908;2023-05-14T03:53:07;8.63;;;4.37;;
1993;SDS011;998;49.906;10.908;2023-05-14T03:55:36;5.87;;;4.13;;
1993;SDS011;998;49.906;10.908;2023-05-14T03:58:03;5.50;;;3.80;;
1993;SDS011;998;49.906;10.908;2023-05-14T04:00:35;5.07;;;3.93;;
1993;SDS011;998;49.906;10.908;2023-05-14T04:03:02;5.73;;;3.60;;
1993;SDS011;998;49.906;10.908;2023-05-14T04:05:30;5.50;;;3.73;;
1993;SDS011;998;49.906;10.908;2023-05-14T04:07:57;8.30;;;4.00;;
1993;SDS011;998;49.906;10.908;2023-05-14T04:10:25;5.97;;;4.60;;
1993;SDS011;998;49.906;10.908;2023-05-14T04:12:53;5.50;;;3.73;;
1993;SDS011;998;49.906;10.908;2023-05-14T04:15:21;5.20;;;4.00;;
1993;SDS011;998;49.906;10.908;2023-05-14T04:17:48;5.30;;;3.80;;
1993;SDS011;998;49.906;10.908;2023-05-14T04:20:16;5.47;;;4.07;;
1993;SDS011;998;49.906;10.908;2023-05-14T04:22:43;5.30;;;4.13;;
1993;SDS011;998;49.906;10.908;2023-05-14T04:25:11;4.90;;;3.63;;
1993;SDS011;998;49.906;10.908;2023-05-14T04:27:38;5.77;;;4.07;;
1993;SDS011;998;49.906;10.908;2023-05-14T04:30:08;5.97;;;3.97;;
1993;SDS011;998;49.906;10.908;2023-05-14T04:32:36;5.77;;;4.40;;
1993;SDS011;998;49.906;10.908;2023-05-14T04:35:03;6.07;;;4.57;;
1993;SDS011;998;49.906;10.908;2023-05-14T04:37:31;6.10;;;4.60;;
1993;SDS011;998;49.906;10.908;2023-05-14T04:39:59;4.87;;;3.73;;
1993;SDS011;998;49.906;10.908;2023-05-14T04:42:26;6.07;;;4.07;;
1993;SDS011;998;49.906;10.908;2023-05-14T04:44:53;7.20;;;4.47;;
1993;SDS011;998;49.906;10.908;2023-05-14T04:47:22;5.27;;;4.07;;
1993;SDS011;998;49.906;10.908;2023-05-14T04:49:50;5.87;;;4.00;;
1993;SDS011;998;49.906;10.908;2023-05-14T04:52:18;6.20;;;3.80;;
1993;SDS011;998;49.906;10.908;2023-05-14T04:54:45;6.53;;;4.17;;
1993;SDS011;998;49.906;10.908;2023-05-14T04:57:12;7.87;;;3.77;;
1993;SDS011;998;49.906;10.908;2023-05-14T04:59:40;5.20;;;3.90;;
1993;SDS011;998;49.906;10.908;2023-05-14T05:02:07;6.30;;;4.30;;
1993;SDS011;998;49.906;10.908;2023-05-14T05:04:36;5.63;;;3.73;;
1993;SDS011;998;49.906;10.908;2023-05-14T05:07:04;5.90;;;4.23;;
1993;SDS011;998;49.906;10.908;2023-05-14T05:09:31;4.77;;;3.77;;
1993;SDS011;998;49.906;10.908;2023-05-14T05:11:58;5.00;;;3.73;;
1993;SDS011;998;49.906;10.908;2023-05-14T05:14:26;7.40;;;4.00;;
1993;SDS011;998;49.906;10.908;2023-05-14T05:16:54;5.57;;;4.00;;
1993;SDS011;998;49.906;10.908;2023-05-14T05:19:21;5.27;;;3.47;;
1993;SDS011;998;49.906;10.908;2023-05-14T05:21:50;5.77;;;3.83;;
1993;SDS011;998;49.906;10.908;2023-05-14T05:24:17;7.60;;;4.27;;
1993;SDS011;998;49.906;10.908;2023-05-14T05:26:45;5.57;;;4.10;;
1993;SDS011;998;49.906;10.908;2023-05-14T05:29:12;7.30;;;4.30;;
1993;SDS011;998;49.906;10.908;2023-05-14T05:31:40;4.87;;;4.20;;
1993;SDS011;998;49.906;10.908;2023-05-14T05:34:07;6.70;;;4.97;;
1993;SDS011;998;49.906;10.908;2023-05-14T05:36:35;5.83;;;4.00;;
1993;SDS011;998;49.906;10.908;2023-05-14T05:39:04;5.33;;;4.33;;
1993;SDS011;998;49.906;10.908;2023-05-14T05:41:31;5.40;;;4.17;;
1993;SDS011;998;49.906;10.908;2023-05-14T05:43:58;5.90;;;4.33;;
1993;SDS011;998;49.906;10.908;2023-05-14T05:46:26;8.07;;;4.80;;
1993;SDS011;998;49.906;10.908;2023-05-14T05:48:53;5.90;;;4.90;;
1993;SDS011;998;49.906;10.908;2023-05-14T05:51:20;7.83;;;4.50;;
1993;SDS011;998;49.906;10.908;2023-05-14T05:53:48;9.50;;;3.97;;
1993;SDS011;998;49.906;10.908;2023-05-14T05:56:17;6.43;;;4.67;;
1993;SDS011;998;49.906;10.908;2023-05-14T05:58:44;7.80;;;4.93;;
1993;SDS011;998;49.906;10.908;2023-05-14T06:01:11;6.63;;;4.40;;
1993;SDS011;998;49.906;10.908;2023-05-14T06:03:39;6.20;;;4.50;;
1993;SDS011;998;49.906;10.908;2023-05-14T06:06:06;6.50;;;4.63;;
1993;SDS011;998;49.906;10.908;2023-05-14T06:08:34;5.50;;;4.10;;
1993;SDS011;998;49.906;10.908;2023-05-14T06:11:01;6.93;;;4.17;;
1993;SDS011;998;49.906;10.908;2023-05-14T06:13:30;7.40;;;5.00;;
1993;SDS011;998;49.906;10.908;2023-05-14T06:15:57;5.13;;;4.17;;
1993;SDS011;998;49.906;10.908;2023-05-14T06:18:25;7.03;;;4.43;;
1993;SDS011;998;49.906;10.908;2023-05-14T06:20:52;6.37;;;4.20;;
1993;SDS011;998;49.906;10.908;2023-05-14T06:23:20;5.53;;;4.20;;
1993;SDS011;998;49.906;10.908;2023-05-14T06:25:48;6.30;;;4.40;;
1993;SDS011;998;49.906;10.908;2023-05-14T06:28:16;9.57;;;4.90;;
1993;SDS011;998;49.906;10.908;2023-05-14T06:30:44;7.00;;;5.00;;
1993;SDS011;998;49.906;10.908;2023-05-14T06:33:14;7.00;;;4.90;;
1993;SDS011;998;49.906;10.908;2023-05-14T06:35:42;6.83;;;4.70;;
1993;SDS011;998;49.906;10.908;2023-05-14T06:38:10;6.40;;;4.80;;
1993;SDS011;998;49.906;10.908;2023-05-14T06:40:37;5.73;;;4.50;;
1993;SDS011;998;49.906;10.908;2023-05-14T06:43:04;10.90;;;4.60;;
1993;SDS011;998;49.906;10.908;2023-05-14T06:45:32;5.77;;;4.67;;
1993;SDS011;998;49.906;10.908;2023-05-14T06:48:01;7.83;;;5.23;;
1993;SDS011;998;49.906;10.908;2023-05-14T06:50:29;7.50;;;4.70;;
1993;SDS011;998;49.906;10.908;2023-05-14T06:52:57;7.20;;;4.50;;
1993;SDS011;998;49.906;10.908;2023-05-14T06:55:24;6.87;;;4.43;;
1993;SDS011;998;49.906;10.908;2023-05-14T06:57:51;7.03;;;5.13;;
1993;SDS011;998;49.906;10.908;2023-05-14T07:00:19;5.77;;;4.37;;
1993;SDS011;998;49.906;10.908;2023-05-14T07:02:47;5.70;;;4.20;;
1993;SDS011;998;49.906;10.908;2023-05-14T07:05:16;4.90;;;4.13;;
1993;SDS011;998;49.906;10.908;2023-05-14T07:07:44;7.23;;;5.10;;
1993;SDS011;998;49.906;10.908;2023-05-14T07:10:11;6.57;;;5.03;;
1993;SDS011;998;49.906;10.908;2023-05-14T07:12:38;6.13;;;3.93;;
1993;SDS011;998;49.906;10.908;2023-05-14T07:15:06;6.63;;;4.73;;
1993;SDS011;998;49.906;10.908;2023-05-14T07:17:34;8.07;;;5.10;;
1993;SDS011;998;49.906;10.908;2023-05-14T07:20:02;5.77;;;4.13;;
1993;SDS011;998;49.906;10.908;2023-05-14T07:22:31;5.43;;;3.83;;
1993;SDS011;998;49.906;10.908;2023-05-14T07:24:59;6.20;;;4.87;;
1993;SDS011;998;49.906;10.908;2023-05-14T07:27:27;6.67;;;4.20;;
1993;SDS011;998;49.906;10.908;2023-05-14T07:29:54;6.30;;;4.20;;
1993;SDS011;998;49.906;10.908;2023-05-14T07:32:21;5.97;;;4.07;;
1993;SDS011;998;49.906;10.908;2023-05-14T07:34:49;6.63;;;4.97;;
1993;SDS011;998;49.906;10.908;2023-05-14T07:37:16;5.13;;;3.83;;
1993;SDS011;998;49.906;10.908;2023-05-14T07:39:45;6.80;;;4.90;;
1993;SDS011;998;49.906;10.908;2023-05-14T07:42:12;9.30;;;5.00;;
1993;SDS011;998;49.906;10.908;2023-05-14T07:44:40;5.90;;;4.27;;
1993;SDS011;998;49.906;10.908;2023-05-14T07:47:07;6.70;;;5.27;;
1993;SDS011;998;49.906;10.908;2023-05-14T07:49:34;5.83;;;3.90;;
1993;SDS011;998;49.906;10.908;2023-05-14T07:52:02;6.60;;;4.63;;
1993;SDS011;998;49.906;10.908;2023-05-14T07:54:30;5.70;;;4.17;;
1993;SDS011;998;49.906;10.908;2023-05-14T07:56:59;7.80;;;4.57;;
1993;SDS011;998;49.906;10.908;2023-05-14T07:59:26;6.10;;;4.43;;
1993;SDS011;998;49.906;10.908;2023-05-14T08:01:53;5.83;;;4.13;;
1993;SDS011;998;49.906;10.908;2023-05-14T08:04:21;6.07;;;4.20;;
1993;SDS011;998;49.906;10.908;2023-05-14T08:06:49;5.10;;;3.60;;
1993;SDS011;998;49.906;10.908;2023-05-14T08:09:16;5.60;;;4.37;;
1993;SDS011;998;49.906;10.908;2023-05-14T08:11:43;7.47;;;4.30;;
1993;SDS011;998;49.906;10.908;2023-05-14T08:14:12;6.83;;;4.10;;
1993;SDS011;998;49.906;10.908;2023-05-14T08:16:40;6.23;;;4.30;;
1993;SDS011;998;49.906;10.908;2023-05-14T08:19:07;9.13;;;6.43;;
1993;SDS011;998;49.906;10.908;2023-05-14T08:21:35;6.30;;;4.40;;
1993;SDS011;998;49.906;10.908;2023-05-14T08:24:02;7.23;;;5.00;;
1993;SDS011;998;49.906;10.908;2023-05-14T08:26:30;5.90;;;4.07;;
1993;SDS011;998;49.906;10.908;2023-05-14T08:28:57;6.77;;;4.60;;
1993;SDS011;998;49.906;10.908;2023-05-14T08:31:26;6.30;;;4.83;;
1993;SDS011;998;49.906;10.908;2023-05-14T08:33:54;5.07;;;4.00;;
1993;SDS011;998;49.906;10.908;2023-05-14T08:36:21;9.70;;;6.17;;
1993;SDS011;998;49.906;10.908;2023-05-14T08:38:48;5.70;;;4.17;;
1993;SDS011;998;49.906;10.908;2023-05-14T08:41:16;6.80;;;4.30;;
1993;SDS011;998;49.906;10.908;2023-05-14T08:43:46;5.40;;;4.03;;
1993;SDS011;998;49.906;10.908;2023-05-14T08:46:19;6.67;;;4.47;;
1993;SDS011;998;49.906;10.908;2023-05-14T08:48:51;7.03;;;5.00;;
1993;SDS011;998;49.906;10.908;2023-05-14T08:51:22;5.40;;;4.17;;
1993;SDS011;998;49.906;10.908;2023-05-14T08:53:51;4.67;;;3.70;;
1993;SDS011;998;49.906;10.908;2023-05-14T08:56:19;6.00;;;3.97;;
1993;SDS011;998;49.906;10.908;2023-05-14T08:58:47;7.80;;;4.37;;
1993;SDS011;998;49.906;10.908;2023-05-14T09:01:14;7.40;;;5.47;;
1993;SDS011;998;49.906;10.908;2023-05-14T09:03:42;7.93;;;4.70;;
1993;SDS011;998;49.906;10.908;2023-05-14T09:06:12;5.97;;;3.80;;
1993;SDS011;998;49.906;10.908;2023-05-14T09:08:40;8.73;;;3.80;;
1993;SDS011;998;49.906;10.908;2023-05-14T09:11:07;6.47;;;4.57;;
1993;SDS011;998;49.906;10.908;2023-05-14T09:13:36;5.93;;;4.00;;
1993;SDS011;998;49.906;10.908;2023-05-14T09:16:04;6.43;;;4.40;;
1993;SDS011;998;49.906;10.908;2023-05-14T09:18:34;5.47;;;3.73;;
1993;SDS011;998;49.906;10.908;2023-05-14T09:21:02;6.20;;;4.00;;
1993;SDS011;998;49.906;10.908;2023-05-14T09:23:32;6.03;;;3.67;;
1993;SDS011;998;49.906;10.908;2023-05-14T09:26:02;5.60;;;4.07;;
1993;SDS011;998;49.906;10.908;2023-05-14T09:28:30;6.23;;;3.70;;
1993;SDS011;998;49.906;10.908;2023-05-14T09:30:58;5.00;;;4.00;;
1993;SDS011;998;49.906;10.908;2023-05-14T09:33:25;5.77;;;4.07;;
1993;SDS011;998;49.906;10.908;2023-05-14T09:35:54;6.10;;;4.50;;
1993;SDS011;998;49.906;10.908;2023-05-14T09:38:26;5.83;;;4.20;;
1993;SDS011;998;49.906;10.908;2023-05-14T09:40:56;4.67;;;3.60;;
1993;SDS011;998;49.906;10.908;2023-05-14T09:43:24;4.77;;;3.47;;
1993;SDS011;998;49.906;10.908;2023-05-14T09:45:52;5.60;;;4.00;;
1993;SDS011;998;49.906;10.908;2023-05-14T09:48:19;6.67;;;4.10;;
1993;SDS011;998;49.906;10.908;2023-05-14T09:50:47;7.00;;;4.80;;
1993;SDS011;998;49.906;10.908;2023-05-14T09:53:15;7.37;;;5.60;;
1993;SDS011;998;49.906;10.908;2023-05-14T09:55:43;11.70;;;7.03;;
1993;SDS011;998;49.906;10.908;2023-05-14T09:58:12;6.07;;;5.00;;
1993;SDS011;998;49.906;10.908;2023-05-14T10:00:40;6.37;;;4.23;;
1993;SDS011;998;49.906;10.908;2023-05-14T10:03:13;6.50;;;4.47;;
1993;SDS011;998;49.906;10.908;2023-05-14T10:05:40;8.03;;;5.23;;
1993;SDS011;998;49.906;10.908;2023-05-14T10:08:09;5.83;;;3.80;;
1993;SDS011;998;49.906;10.908;2023-05-14T10:10:40;5.40;;;3.47;;
1993;SDS011;998;49.906;10.908;2023-05-14T10:13:09;5.80;;;3.50;;
1993;SDS011;998;49.906;10.908;2023-05-14T10:15:46;6.57;;;4.50;;
1993;SDS011;998;49.906;10.908;2023-05-14T10:18:15;5.73;;;4.07;;
1993;SDS011;998;49.906;10.908;2023-05-14T10:20:45;4.23;;;3.30;;
1993;SDS011;998;49.906;10.908;2023-05-14T10:23:16;5.40;;;3.80;;
1993;SDS011;998;49.906;10.908;2023-05-14T10:25:43;6.40;;;4.53;;
1993;SDS011;998;49.906;10.908;2023-05-14T10:28:11;6.50;;;3.63;;
1993;SDS011;998;49.906;10.908;2023-05-14T10:30:42;5.43;;;3.90;;
1993;SDS011;998;49.906;10.908;2023-05-14T10:33:11;5.30;;;3.53;;
1993;SDS011;998;49.906;10.908;2023-05-14T10:35:50;5.00;;;3.43;;
1993;SDS011;998;49.906;10.908;2023-05-14T10:38:21;4.43;;;3.20;;
1993;SDS011;998;49.906;10.908;2023-05-14T10:40:53;5.83;;;3.73;;
1993;SDS011;998;49.906;10.908;2023-05-14T10:43:25;5.70;;;3.30;;
1993;SDS011;998;49.906;10.908;2023-05-14T10:45:55;5.40;;;4.40;;
1993;SDS011;998;49.906;10.908;2023-05-14T10:48:22;5.00;;;3.30;;
1993;SDS011;998;49.906;10.908;2023-05-14T10:50:51;5.60;;;3.90;;
1993;SDS011;998;49.906;10.908;2023-05-14T10:53:19;4.53;;;3.30;;
1993;SDS011;998;49.906;10.908;2023-05-14T10:55:55;5.07;;;3.10;;
1993;SDS011;998;49.906;10.908;2023-05-14T10:58:24;6.60;;;3.57;;
1993;SDS011;998;49.906;10.908;2023-05-14T11:00:53;4.57;;;2.97;;
1993;SDS011;998;49.906;10.908;2023-05-14T11:03:21;5.23;;;3.67;;
1993;SDS011;998;49.906;10.908;2023-05-14T11:05:48;5.60;;;3.80;;
1993;SDS011;998;49.906;10.908;2023-05-14T11:08:16;5.60;;;3.70;;
1993;SDS011;998;49.906;10.908;2023-05-14T11:10:45;5.10;;;3.13;;
1993;SDS011;998;49.906;10.908;2023-05-14T11:13:13;5.57;;;3.83;;
1993;SDS011;998;49.906;10.908;2023-05-14T11:15:44;4.70;;;3.67;;
1993;SDS011;998;49.906;10.908;2023-05-14T11:18:24;4.50;;;3.30;;
1993;SDS011;998;49.906;10.908;2023-05-14T11:20:53;6.77;;;3.80;;
1993;SDS011;998;49.906;10.908;2023-05-14T11:23:23;4.63;;;3.50;;
1993;SDS011;998;49.906;10.908;2023-05-14T11:25:51;5.47;;;3.60;;
1993;SDS011;998;49.906;10.908;2023-05-14T11:28:19;4.07;;;2.70;;
1993;SDS011;998;49.906;10.908;2023-05-14T11:30:49;5.33;;;3.03;;
1993;SDS011;998;49.906;10.908;2023-05-14T11:33:17;5.40;;;3.20;;
1993;SDS011;998;49.906;10.908;2023-05-14T11:35:45;4.57;;;2.93;;
1993;SDS011;998;49.906;10.908;2023-05-14T11:38:13;4.43;;;3.00;;
1993;SDS011;998;49.906;10.908;2023-05-14T11:40:42;4.40;;;2.83;;
1993;SDS011;998;49.906;10.908;2023-05-14T11:43:16;4.00;;;2.60;;
1993;SDS011;998;49.906;10.908;2023-05-14T11:45:49;3.90;;;2.80;;
1993;SDS011;998;49.906;10.908;2023-05-14T11:48:17;5.10;;;3.20;;
1993;SDS011;998;49.906;10.908;2023-05-14T11:50:45;4.27;;;3.30;;
1993;SDS011;998;49.906;10.908;2023-05-14T11:53:16;4.30;;;2.90;;
1993;SDS011;998;49.906;10.908;2023-05-14T11:55:45;4.03;;;3.00;;
1993;SDS011;998;49.906;10.908;2023-05-14T11:58:12;4.57;;;3.20;;
1993;SDS011;998;49.906;10.908;2023-05-14T12:00:40;4.33;;;3.37;;
1993;SDS011;998;49.906;10.908;2023-05-14T12:03:11;5.67;;;2.87;;
1993;SDS011;998;49.906;10.908;2023-05-14T12:05:38;7.80;;;3.63;;
1993;SDS011;998;49.906;10.908;2023-05-14T12:08:18;6.97;;;4.10;;
1993;SDS011;998;49.906;10.908;2023-05-14T12:10:46;4.80;;;3.40;;
1993;SDS011;998;49.906;10.908;2023-05-14T12:13:14;4.70;;;3.20;;
1993;SDS011;998;49.906;10.908;2023-05-14T12:15:43;4.17;;;3.00;;
1993;SDS011;998;49.906;10.908;2023-05-14T12:18:13;4.13;;;2.80;;
1993;SDS011;998;49.906;10.908;2023-05-14T12:20:46;4.90;;;3.03;;
1993;SDS011;998;49.906;10.908;2023-05-14T12:23:15;4.17;;;2.80;;
1993;SDS011;998;49.906;10.908;2023-05-14T12:25:49;4.90;;;2.83;;
1993;SDS011;998;49.906;10.908;2023-05-14T12:28:17;4.50;;;3.33;;
1993;SDS011;998;49.906;10.908;2023-05-14T12:30:45;4.23;;;2.90;;
1993;SDS011;998;49.906;10.908;2023-05-14T12:33:14;7.17;;;4.63;;
1993;SDS011;998;49.906;10.908;2023-05-14T12:35:42;5.57;;;3.80;;
1993;SDS011;998;49.906;10.908;2023-05-14T12:38:09;5.40;;;3.93;;
1993;SDS011;998;49.906;10.908;2023-05-14T12:40:37;4.83;;;3.53;;
1993;SDS011;998;49.906;10.908;2023-05-14T12:43:04;5.60;;;3.13;;
1993;SDS011;998;49.906;10.908;2023-05-14T12:45:31;4.77;;;3.17;;
1993;SDS011;998;49.906;10.908;2023-05-14T12:47:59;4.70;;;3.10;;
1993;SDS011;998;49.906;10.908;2023-05-14T12:50:28;3.93;;;3.03;;
1993;SDS011;998;49.906;10.908;2023-05-14T12:52:55;4.53;;;3.37;;
1993;SDS011;998;49.906;10.908;2023-05-14T12:55:22;4.80;;;2.80;;
1993;SDS011;998;49.906;10.908;2023-05-14T12:57:50;6.50;;;3.20;;
1993;SDS011;998;49.906;10.908;2023-05-14T13:00:17;7.57;;;3.67;;
1993;SDS011;998;49.906;10.908;2023-05-14T13:02:45;3.83;;;2.70;;
1993;SDS011;998;49.906;10.908;2023-05-14T13:05:12;5.03;;;3.13;;
1993;SDS011;998;49.906;10.908;2023-05-14T13:07:41;6.37;;;2.80;;
1993;SDS011;998;49.906;10.908;2023-05-14T13:10:09;5.40;;;2.80;;
1993;SDS011;998;49.906;10.908;2023-05-14T13:12:36;5.20;;;3.67;;
1993;SDS011;998;49.906;10.908;2023-05-14T13:15:04;5.77;;;3.10;;
1993;SDS011;998;49.906;10.908;2023-05-14T13:17:32;3.70;;;2.83;;
1993;SDS011;998;49.906;10.908;2023-05-14T13:20:00;4.73;;;3.07;;
1993;SDS011;998;49.906;10.908;2023-05-14T13:22:28;5.47;;;3.80;;
1993;SDS011;998;49.906;10.908;2023-05-14T13:24:57;4.00;;;3.00;;
1993;SDS011;998;49.906;10.908;2023-05-14T13:27:24;5.73;;;2.90;;
1993;SDS011;998;49.906;10.908;2023-05-14T13:29:52;3.70;;;2.63;;
1993;SDS011;998;49.906;10.908;2023-05-14T13:32:20;3.80;;;2.60;;
1993;SDS011;998;49.906;10.908;2023-05-14T13:34:47;3.93;;;2.63;;
1993;SDS011;998;49.906;10.908;2023-05-14T13:37:14;4.03;;;3.00;;
1993;SDS011;998;49.906;10.908;2023-05-14T13:39:42;3.50;;;2.33;;
1993;SDS011;998;49.906;10.908;2023-05-14T13:42:11;4.10;;;2.73;;
1993;SDS011;998;49.906;10.908;2023-05-14T13:44:38;4.73;;;3.43;;
1993;SDS011;998;49.906;10.908;2023-05-14T13:47:05;7.27;;;4.00;;
1993;SDS011;998;49.906;10.908;2023-05-14T13:49:33;6.80;;;4.10;;
1993;SDS011;998;49.906;10.908;2023-05-14T13:52:00;6.90;;;4.63;;
1993;SDS011;998;49.906;10.908;2023-05-14T13:54:27;4.30;;;3.13;;
1993;SDS011;998;49.906;10.908;2023-05-14T13:56:54;3.70;;;2.97;;
1993;SDS011;998;49.906;10.908;2023-05-14T13:59:23;5.53;;;3.63;;
1993;SDS011;998;49.906;10.908;2023-05-14T14:01:51;5.40;;;3.40;;
1993;SDS011;998;49.906;10.908;2023-05-14T14:04:19;3.67;;;2.93;;
1993;SDS011;998;49.906;10.908;2023-05-14T14:06:47;5.43;;;2.97;;
1993;SDS011;998;49.906;10.908;2023-05-14T14:09:15;4.43;;;3.07;;
1993;SDS011;998;49.906;10.908;2023-05-14T14:11:42;4.10;;;3.23;;
1993;SDS011;998;49.906;10.908;2023-05-14T14:14:10;3.87;;;2.80;;
1993;SDS011;998;49.906;10.908;2023-05-14T14:16:39;6.93;;;3.63;;
1993;SDS011;998;49.906;10.908;2023-05-14T14:19:06;4.63;;;3.30;;
1993;SDS011;998;49.906;10.908;2023-05-14T14:21:33;3.90;;;3.20;;
1993;SDS011;998;49.906;10.908;2023-05-14T14:24:04;3.93;;;3.07;;
1993;SDS011;998;49.906;10.908;2023-05-14T14:26:31;3.70;;;2.43;;
1993;SDS011;998;49.906;10.908;2023-05-14T14:28:59;3.83;;;2.40;;
1993;SDS011;998;49.906;10.908;2023-05-14T14:31:26;5.60;;;3.03;;
1993;SDS011;998;49.906;10.908;2023-05-14T14:33:55;4.30;;;2.93;;
1993;SDS011;998;49.906;10.908;2023-05-14T14:36:22;4.20;;;3.10;;
1993;SDS011;998;49.906;10.908;2023-05-14T14:38:50;4.20;;;2.70;;
1993;SDS011;998;49.906;10.908;2023-05-14T14:41:17;4.60;;;2.90;;
1993;SDS011;998;49.906;10.908;2023-05-14T14:43:44;3.43;;;2.50;;
1993;SDS011;998;49.906;10.908;2023-05-14T14:46:12;4.03;;;2.60;;
1993;SDS011;998;49.906;10.908;2023-05-14T14:48:39;3.50;;;2.50;;
1993;SDS011;998;49.906;10.908;2023-05-14T14:51:09;3.50;;;2.40;;
1993;SDS011;998;49.906;10.908;2023-05-14T14:53:37;4.20;;;2.63;;
1993;SDS011;998;49.906;10.908;2023-05-14T14:56:05;4.30;;;2.67;;
1993;SDS011;998;49.906;10.908;2023-05-14T14:58:32;4.03;;;2.53;;
1993;SDS011;998;49.906;10.908;2023-05-14T15:01:00;4.80;;;3.40;;
1993;SDS011;998;49.906;10.908;2023-05-14T15:03:28;3.40;;;2.57;;
1993;SDS011;998;49.906;10.908;2023-05-14T15:05:55;4.53;;;2.90;;
1993;SDS011;998;49.906;10.908;2023-05-14T15:08:25;3.90;;;2.70;;
1993;SDS011;998;49.906;10.908;2023-05-14T15:10:53;4.33;;;3.27;;
1993;SDS011;998;49.906;10.908;2023-05-14T15:13:21;3.80;;;2.77;;
1993;SDS011;998;49.906;10.908;2023-05-14T15:15:51;3.63;;;2.50;;
1993;SDS011;998;49.906;10.908;2023-05-14T15:18:18;4.00;;;2.70;;
1993;SDS011;998;49.906;10.908;2023-05-14T15:20:46;3.83;;;2.73;;